Time;durP1;ratioP1;P1;durP2;ratioP2;P2;SDS_P1;SDS_P2;PMS_P1;PMS_P2;Temp;Humidity;BMP_temperature;BMP_pressure;BME280_temperature;BME280_humidity;BME280_pressure;Samples;Min_cycle;Max_cycle;Signal;HPM_P1;HPM_P2
2021/05/03 00:02:27;;;;;;;5.70;3.12;;;;;;;13.72;64.47;100091.23;1747564;82;21195;-67
2021/05/03 00:04:56;;;;;;;8.80;3.30;;;;;;;13.68;64.64;100084.54;1722675;82;20981;-68
2021/05/03 00:07:25;;;;;;;6.92;3.47;;;;;;;13.66;64.87;100088.61;1747568;80;21006;-67
2021/05/03 00:09:54;;;;;;;12.25;3.92;;;;;;;13.65;65.00;100108.48;1747623;82;20966;-66
2021/05/03 00:12:23;;;;;;;5.95;3.42;;;;;;;13.64;65.18;100107.66;1747576;80;20958;-68
2021/05/03 00:14:53;;;;;;;9.58;3.98;;;;;;;13.63;65.21;100101.22;1747534;82;21026;-66
2021/05/03 00:19:43;;;;;;;10.55;4.87;;;;;;;13.62;65.39;100088.50;1777135;78;22685;-68
2021/05/03 00:22:11;;;;;;;9.00;3.92;;;;;;;13.56;65.55;100086.84;1749772;82;20900;-68
2021/05/03 00:24:40;;;;;;;8.53;3.37;;;;;;;13.53;65.73;100104.22;1749614;82;21275;-68
2021/05/03 00:27:08;;;;;;;9.63;4.00;;;;;;;13.51;65.81;100108.29;1749546;82;20955;-66
2021/05/03 00:29:38;;;;;;;8.15;3.30;;;;;;;13.48;66.02;100101.48;1749660;80;21006;-68
2021/05/03 00:32:06;;;;;;;10.88;3.33;;;;;;;13.47;66.15;100097.19;1749595;80;20990;-68
2021/05/03 00:34:35;;;;;;;7.97;3.98;;;;;;;13.44;66.75;100092.63;1749645;82;21512;-67
2021/05/03 00:37:03;;;;;;;7.45;4.05;;;;;;;13.44;66.75;100092.63;1749626;80;21337;-67
2021/05/03 00:39:32;;;;;;;7.90;4.90;;;;;;;13.43;66.63;100101.50;1749585;82;21018;-66
2021/05/03 00:42:01;;;;;;;7.60;4.37;;;;;;;13.43;66.97;100122.58;1749625;82;20951;-66
2021/05/03 00:44:30;;;;;;;11.83;4.97;;;;;;;13.39;66.95;100120.66;1749535;82;20900;-66
2021/05/03 00:46:59;;;;;;;6.78;3.50;;;;;;;13.37;67.06;100130.96;1749673;82;20952;-66
2021/05/03 00:49:28;;;;;;;7.67;4.45;;;;;;;13.36;67.27;100121.37;1720736;82;21381;-68
2021/05/03 00:51:57;;;;;;;7.15;4.03;;;;;;;13.33;67.60;100125.58;1749593;82;21010;-68
2021/05/03 00:54:26;;;;;;;11.05;4.72;;;;;;;13.28;67.83;100121.99;1749565;82;21010;-66
2021/05/03 00:56:54;;;;;;;11.93;6.50;;;;;;;13.26;67.96;100121.24;1749608;82;20935;-66
2021/05/03 00:59:24;;;;;;;8.13;3.42;;;;;;;13.24;68.17;100129.25;1721000;82;20955;-67
2021/05/03 01:01:52;;;;;;;11.43;4.72;;;;;;;13.23;68.24;100122.33;1749612;80;21209;-66
2021/05/03 01:04:21;;;;;;;9.83;4.10;;;;;;;13.22;68.27;100127.22;1749568;82;20988;-66
2021/05/03 01:06:49;;;;;;;10.82;3.72;;;;;;;13.21;68.37;100112.88;1749634;81;21113;-66
2021/05/03 01:09:18;;;;;;;10.38;4.15;;;;;;;13.18;68.63;100115.25;1749589;80;20993;-67
2021/05/03 01:11:46;;;;;;;8.33;3.35;;;;;;;13.16;68.92;100114.56;1720768;82;20948;-66
2021/05/03 01:14:15;;;;;;;6.97;3.55;;;;;;;13.14;69.00;100125.69;1749626;80;21195;-66
2021/05/03 01:16:43;;;;;;;11.15;4.70;;;;;;;13.14;69.21;100119.56;1749561;82;20955;-67
2021/05/03 01:19:11;;;;;;;12.28;4.55;;;;;;;13.14;69.42;100118.25;1740625;81;20951;-66
2021/05/03 01:21:40;;;;;;;9.68;4.92;;;;;;;13.13;69.43;100136.33;1736376;82;20936;-66
2021/05/03 01:24:09;;;;;;;7.60;4.28;;;;;;;13.14;69.41;100140.17;1736446;82;20983;-66
2021/05/03 01:26:37;;;;;;;13.90;5.25;;;;;;;13.16;69.40;100142.20;1736368;82;22069;-66
2021/05/03 01:29:06;;;;;;;10.25;4.62;;;;;;;13.15;69.37;100147.09;1736208;81;21003;-66
2021/05/03 01:31:34;;;;;;;10.00;4.67;;;;;;;13.13;69.40;100150.81;1735857;82;20944;-66
2021/05/03 01:34:07;;;;;;;8.00;3.30;;;;;;;13.11;69.53;100143.02;1735882;82;20936;-67
2021/05/03 01:36:41;;;;;;;11.08;4.17;;;;;;;13.11;69.64;100145.66;1735855;82;21027;-66
2021/05/03 01:39:12;;;;;;;10.55;4.67;;;;;;;13.11;69.90;100157.99;1735959;81;23918;-66
2021/05/03 01:41:40;;;;;;;8.50;5.47;;;;;;;13.10;70.08;100165.06;1735808;81;20948;-67
2021/05/03 01:44:10;;;;;;;15.58;4.50;;;;;;;13.10;70.16;100153.70;1735846;82;21023;-67
2021/05/03 01:46:39;;;;;;;7.47;3.65;;;;;;;13.09;70.25;100166.00;1735797;81;21018;-68
2021/05/03 01:49:08;;;;;;;6.55;4.28;;;;;;;13.04;70.44;100157.14;1735934;82;20944;-67
2021/05/03 01:51:38;;;;;;;11.03;4.30;;;;;;;13.06;70.80;100165.77;1735809;82;21199;-67
2021/05/03 01:54:07;;;;;;;9.40;4.28;;;;;;;13.04;70.96;100172.11;1735794;82;21042;-68
2021/05/03 01:56:36;;;;;;;10.10;4.37;;;;;;;13.04;71.22;100161.58;1735799;82;20992;-66
2021/05/03 01:59:07;;;;;;;9.30;4.28;;;;;;;13.06;71.30;100148.66;1735744;82;21031;-67
2021/05/03 02:01:39;;;;;;;13.95;5.33;;;;;;;13.09;71.48;100149.37;1735987;82;20912;-67
2021/05/03 02:04:08;;;;;;;12.63;5.03;;;;;;;13.11;71.53;100140.88;1736009;82;21436;-67
2021/05/03 02:06:39;;;;;;;13.93;8.60;;;;;;;13.13;71.76;100145.55;1735891;82;21560;-67
2021/05/03 02:09:10;;;;;;;16.17;7.37;;;;;;;13.14;71.79;100145.89;1735956;81;21438;-66
2021/05/03 02:11:39;;;;;;;11.20;5.08;;;;;;;13.16;71.82;100140.89;1735751;81;21003;-67
2021/05/03 02:14:10;;;;;;;8.60;4.85;;;;;;;13.19;71.79;100151.66;1735855;82;20932;-67
2021/05/03 02:16:38;;;;;;;16.85;4.83;;;;;;;13.21;71.82;100147.11;1735814;82;21192;-66
2021/05/03 02:19:07;;;;;;;13.80;5.37;;;;;;;13.25;71.87;100157.28;1742486;81;20995;-66
2021/05/03 02:21:35;;;;;;;14.73;6.28;;;;;;;13.28;71.93;100152.27;1749783;82;21011;-65
2021/05/03 02:24:05;;;;;;;10.88;5.83;;;;;;;13.32;71.87;100154.17;1749761;82;20959;-67
2021/05/03 02:26:34;;;;;;;16.12;5.83;;;;;;;13.36;71.83;100155.61;1749867;82;21370;-66
2021/05/03 02:29:03;;;;;;;13.18;6.85;;;;;;;13.39;71.75;100152.75;1749920;80;21381;-66
2021/05/03 02:31:31;;;;;;;12.68;6.05;;;;;;;13.42;71.65;100148.05;1749806;82;20931;-66
2021/05/03 02:34:00;;;;;;;11.45;5.05;;;;;;;13.47;71.62;100149.86;1749808;82;21175;-68
2021/05/03 02:36:29;;;;;;;13.85;5.35;;;;;;;13.51;71.57;100151.75;1749759;82;21018;-66
2021/05/03 02:38:57;;;;;;;14.30;6.05;;;;;;;13.54;71.62;100143.62;1749763;82;21006;-68
2021/05/03 02:41:26;;;;;;;12.40;6.78;;;;;;;13.56;71.63;100144.34;1749768;82;21364;-67
2021/05/03 02:43:54;;;;;;;15.58;6.08;;;;;;;13.59;71.57;100130.91;1749744;82;20975;-67
2021/05/03 02:46:24;;;;;;;16.82;5.87;;;;;;;13.61;71.58;100121.09;1749852;82;20947;-67
2021/05/03 02:48:53;;;;;;;14.28;5.67;;;;;;;13.59;71.66;100116.42;1749767;82;20935;-68
2021/05/03 02:51:23;;;;;;;16.77;5.97;;;;;;;13.58;71.69;100120.48;1749855;80;21298;-67
2021/05/03 02:53:51;;;;;;;11.53;5.47;;;;;;;13.57;71.75;100123.61;1749752;82;21208;-69
2021/05/03 02:56:19;;;;;;;10.13;5.33;;;;;;;13.59;71.82;100127.45;1749720;82;20951;-67
2021/05/03 02:58:48;;;;;;;14.35;5.92;;;;;;;13.60;71.85;100136.52;1749754;82;21005;-68
2021/05/03 03:01:15;;;;;;;20.20;7.17;;;;;;;13.63;71.92;100132.83;1749803;80;21062;-67
2021/05/03 03:03:44;;;;;;;15.60;6.42;;;;;;;13.64;71.81;100145.86;1749785;82;20895;-67
2021/05/03 03:06:12;;;;;;;13.72;5.87;;;;;;;13.66;71.74;100141.31;1749659;82;21209;-67
2021/05/03 03:08:41;;;;;;;12.75;5.05;;;;;;;13.71;71.64;100149.33;1749686;80;21007;-67
2021/05/03 03:11:10;;;;;;;11.55;4.95;;;;;;;13.74;71.50;100149.93;1749769;82;20955;-67
2021/05/03 03:13:39;;;;;;;15.38;5.05;;;;;;;13.77;71.45;100150.98;1749719;82;21003;-67
2021/05/03 03:16:07;;;;;;;13.55;5.42;;;;;;;13.81;71.35;100147.15;1749792;80;20967;-67
2021/05/03 03:18:35;;;;;;;11.20;5.92;;;;;;;13.84;71.38;100152.16;1747570;81;21813;-67
2021/05/03 03:21:04;;;;;;;15.98;6.62;;;;;;;13.86;71.35;100153.36;1735688;81;20920;-67
2021/05/03 03:23:32;;;;;;;11.60;6.80;;;;;;;13.89;71.31;100150.46;1735767;81;20901;-67
2021/05/03 03:26:02;;;;;;;11.40;5.53;;;;;;;13.90;71.30;100152.16;1735715;82;20951;-65
2021/05/03 03:28:33;;;;;;;10.72;4.78;;;;;;;13.94;71.23;100150.95;1735734;81;20945;-67
2021/05/03 03:31:01;;;;;;;14.63;5.25;;;;;;;14.00;71.15;100150.91;1735778;81;21271;-67
2021/05/03 03:33:29;;;;;;;18.92;7.10;;;;;;;14.03;71.09;100153.31;1735724;82;21007;-68
2021/05/03 03:35:58;;;;;;;11.57;5.55;;;;;;;14.09;71.04;100156.74;1735816;82;21481;-67
2021/05/03 03:38:26;;;;;;;10.28;5.42;;;;;;;14.13;70.97;100155.53;1735675;82;21032;-68
2021/05/03 03:40:55;;;;;;;16.50;7.65;;;;;;;14.19;70.82;100152.88;1735718;81;20920;-66
2021/05/03 03:43:23;;;;;;;14.50;6.17;;;;;;;14.22;70.70;100153.45;1735730;82;21381;-69
2021/05/03 03:45:51;;;;;;;13.35;4.87;;;;;;;14.27;70.54;100155.24;1735808;81;20940;-65
2021/05/03 03:48:20;;;;;;;10.80;5.03;;;;;;;14.31;70.35;100151.36;1735739;82;20909;-66
2021/05/03 03:50:48;;;;;;;9.03;4.47;;;;;;;14.37;70.26;100160.58;1735766;82;20992;-67
2021/05/03 03:53:17;;;;;;;17.55;6.80;;;;;;;14.41;70.25;100160.68;1735841;82;20987;-66
2021/05/03 03:55:45;;;;;;;16.15;6.47;;;;;;;14.46;70.24;100154.53;1735685;82;21144;-66
2021/05/03 03:58:13;;;;;;;14.60;7.97;;;;;;;14.51;70.15;100158.92;1735652;81;20945;-66
2021/05/03 04:00:41;;;;;;;19.55;6.70;;;;;;;14.59;70.03;100148.27;1735712;81;20948;-66
2021/05/03 04:03:11;;;;;;;15.80;7.35;;;;;;;14.66;69.85;100136.22;1735671;82;20928;-66
2021/05/03 04:08:22;;;;;;;13.55;5.40;;;;;;;14.81;69.48;100126.99;1735778;81;21322;-67
2021/05/03 04:13:57;;;;;;;19.35;6.60;;;;;;;15.01;69.22;100134.52;1735761;82;21015;-66
2021/05/03 04:24:20;;;;;;;12.78;5.12;;;;;;;15.93;66.78;100148.87;1749693;82;20990;-67
2021/05/03 04:26:44;;;;;;;12.10;6.22;;;;;;;16.05;66.06;100132.41;1749207;82;21496;-67
2021/05/03 04:29:12;;;;;;;17.15;7.20;;;;;;;16.18;65.79;100130.78;1749683;80;20955;-66
2021/05/03 04:31:41;;;;;;;13.60;6.72;;;;;;;16.18;65.79;100130.78;1749702;82;20974;-66
2021/05/03 04:34:09;;;;;;;17.50;6.33;;;;;;;16.23;65.59;100116.66;1749740;82;21443;-66
2021/05/03 04:36:37;;;;;;;8.10;4.85;;;;;;;16.26;65.59;100112.40;1749576;82;21026;-67
2021/05/03 04:39:07;;;;;;;10.03;5.95;;;;;;;16.26;65.56;100108.42;1749688;82;21039;-66
2021/05/03 04:41:35;;;;;;;12.05;5.45;;;;;;;16.26;65.56;100108.42;1749756;82;21524;-66
2021/05/03 04:44:04;;;;;;;17.48;6.80;;;;;;;16.29;65.70;100108.63;1749685;82;20900;-66
2021/05/03 04:46:32;;;;;;;12.53;5.67;;;;;;;16.32;65.45;100118.95;1749716;82;21795;-68
2021/05/03 04:49:01;;;;;;;11.22;5.35;;;;;;;16.29;65.65;100137.24;1749732;82;20947;-68
2021/05/03 04:51:31;;;;;;;15.05;6.60;;;;;;;16.26;65.68;100147.29;1749607;82;20912;-66
2021/05/03 04:53:59;;;;;;;11.75;5.15;;;;;;;16.21;65.66;100141.56;1749738;82;21452;-67
2021/05/03 04:56:28;;;;;;;15.88;6.37;;;;;;;16.18;65.88;100147.15;1749747;82;21034;-67
2021/05/03 04:58:56;;;;;;;13.72;5.50;;;;;;;16.17;65.87;100139.70;1749493;82;21364;-66
2021/05/03 05:01:25;;;;;;;11.88;5.40;;;;;;;16.12;66.13;100127.39;1749666;80;21503;-67
2021/05/03 05:03:54;;;;;;;17.75;6.05;;;;;;;16.08;66.32;100110.12;1749817;80;20931;-66
2021/05/03 05:06:22;;;;;;;16.05;7.12;;;;;;;16.04;66.49;100122.78;1749832;82;21046;-66
2021/05/03 05:08:50;;;;;;;15.05;6.10;;;;;;;16.03;66.72;100132.17;1749932;82;20935;-66
2021/05/03 05:11:18;;;;;;;12.65;6.35;;;;;;;15.99;67.29;100122.88;1749888;82;21178;-67
2021/05/03 05:13:48;;;;;;;15.70;6.92;;;;;;;15.99;67.29;100122.88;1749756;82;21002;-69
2021/05/03 05:16:16;;;;;;;14.00;6.00;;;;;;;15.97;67.20;100108.45;1749808;82;21046;-67
2021/05/03 05:18:44;;;;;;;12.30;4.83;;;;;;;15.95;67.23;100104.62;1749754;80;20943;-68
2021/05/03 05:21:13;;;;;;;14.93;6.12;;;;;;;15.94;67.41;100104.28;1749815;82;20947;-68
2021/05/03 05:23:42;;;;;;;11.40;5.37;;;;;;;15.98;67.70;100114.57;1749893;82;21338;-67
2021/05/03 05:26:11;;;;;;;11.57;5.35;;;;;;;15.98;67.70;100114.57;1749739;82;21499;-68
2021/05/03 05:28:39;;;;;;;15.78;6.47;;;;;;;15.97;67.72;100128.30;1749815;82;20999;-66
2021/05/03 05:31:07;;;;;;;12.68;5.67;;;;;;;15.99;67.59;100145.35;1749779;82;20999;-67
2021/05/03 05:33:35;;;;;;;13.93;6.05;;;;;;;16.00;67.74;100134.61;1749817;82;20990;-68
2021/05/03 05:36:06;;;;;;;17.17;5.85;;;;;;;16.01;67.77;100135.44;1749842;82;21330;-66
2021/05/03 05:38:36;;;;;;;16.67;5.60;;;;;;;16.01;67.81;100135.44;1749840;82;21370;-66
2021/05/03 05:41:05;;;;;;;12.40;5.12;;;;;;;16.03;67.94;100133.03;1749820;82;20972;-66
2021/05/03 05:43:33;;;;;;;16.82;5.67;;;;;;;16.06;68.01;100140.67;1749900;82;21322;-66
2021/05/03 05:46:02;;;;;;;14.70;5.10;;;;;;;16.12;68.22;100134.84;1749877;80;20942;-66
2021/05/03 05:48:30;;;;;;;12.40;5.85;;;;;;;16.20;68.27;100136.77;1750119;82;21200;-67
2021/05/03 05:50:59;;;;;;;21.55;6.72;;;;;;;16.24;67.84;100132.04;1749855;82;21018;-67
2021/05/03 05:53:27;;;;;;;17.85;6.40;;;;;;;16.40;68.24;100142.05;1749771;82;20998;-69
2021/05/03 05:55:55;;;;;;;15.08;6.78;;;;;;;16.40;68.24;100142.05;1749768;80;21037;-67
2021/05/03 05:58:24;;;;;;;14.23;5.50;;;;;;;16.48;67.37;100140.86;1749782;82;20915;-68
2021/05/03 06:00:52;;;;;;;16.55;5.80;;;;;;;16.52;66.87;100144.90;1749793;82;21150;-67
2021/05/03 06:03:21;;;;;;;15.05;5.03;;;;;;;16.58;66.66;100148.28;1749703;80;20967;-68
2021/05/03 06:05:50;;;;;;;10.00;4.90;;;;;;;16.69;65.62;100136.19;1749780;80;21354;-69
2021/05/03 06:08:18;;;;;;;15.98;5.65;;;;;;;16.69;65.62;100136.19;1749796;82;20987;-69
2021/05/03 06:10:46;;;;;;;15.13;5.87;;;;;;;16.73;65.49;100139.41;1749815;82;20979;-67
2021/05/03 06:13:15;;;;;;;18.92;5.70;;;;;;;16.81;65.43;100140.02;1749791;81;21374;-68
2021/05/03 06:15:43;;;;;;;21.52;6.22;;;;;;;16.89;64.82;100127.73;1749787;82;21026;-68
2021/05/03 06:18:12;;;;;;;15.00;6.55;;;;;;;16.94;64.59;100118.02;1749795;82;21487;-68
2021/05/03 06:20:40;;;;;;;12.37;6.72;;;;;;;17.01;64.70;100115.63;1741160;81;20947;-70
2021/05/03 06:23:11;;;;;;;10.85;6.03;;;;;;;17.06;64.26;100114.72;1735778;82;20927;-68
2021/05/03 06:25:40;;;;;;;9.95;5.08;;;;;;;17.11;64.20;100116.43;1735862;82;21520;-67
2021/05/03 06:28:09;;;;;;;11.12;4.97;;;;;;;17.24;63.84;100127.52;1735814;82;21027;-69
2021/05/03 06:30:39;;;;;;;12.00;4.45;;;;;;;17.42;63.45;100130.71;1735819;82;20995;-68
2021/05/03 06:33:07;;;;;;;14.60;4.83;;;;;;;17.63;62.76;100135.73;1735740;82;21028;-68
2021/05/03 06:35:35;;;;;;;15.53;5.30;;;;;;;17.80;62.14;100146.36;1735722;82;20928;-70
2021/05/03 06:38:06;;;;;;;11.35;4.85;;;;;;;17.96;61.63;100155.02;1735781;82;21200;-68
2021/05/03 06:40:34;;;;;;;14.98;5.92;;;;;;;18.09;61.55;100161.76;1735699;82;20940;-70
2021/05/03 06:43:02;;;;;;;8.85;4.42;;;;;;;18.20;61.25;100170.81;1735860;82;21643;-67
2021/05/03 06:45:33;;;;;;;15.25;4.80;;;;;;;18.30;60.93;100183.52;1735753;81;21497;-67
2021/05/03 06:48:02;;;;;;;12.50;5.45;;;;;;;18.42;61.05;100183.61;1735732;82;20904;-67
2021/05/03 06:50:31;;;;;;;14.05;5.10;;;;;;;18.58;61.06;100180.23;1735844;81;21355;-66
2021/05/03 06:52:59;;;;;;;13.58;4.95;;;;;;;18.80;60.54;100174.95;1735535;82;21023;-67
2021/05/03 06:55:28;;;;;;;14.70;5.85;;;;;;;19.02;59.97;100165.61;1735804;82;21596;-67
2021/05/03 06:57:56;;;;;;;13.18;5.17;;;;;;;19.30;59.57;100152.61;1735709;82;21069;-66
2021/05/03 07:00:26;;;;;;;10.68;4.90;;;;;;;19.66;58.77;100159.39;1735754;82;21003;-67
2021/05/03 07:02:54;;;;;;;15.70;5.90;;;;;;;20.05;57.31;100158.84;1735673;82;21430;-68
2021/05/03 07:05:22;;;;;;;10.43;5.25;;;;;;;20.37;56.61;100165.16;1735667;81;20963;-71
2021/05/03 07:07:51;;;;;;;18.00;6.12;;;;;;;20.64;55.61;100160.52;1735763;82;20937;-68
2021/05/03 07:10:19;;;;;;;13.83;5.65;;;;;;;20.98;54.70;100163.43;1735687;82;21027;-68
2021/05/03 07:12:50;;;;;;;10.88;4.80;;;;;;;21.26;53.86;100158.52;1735845;82;21334;-68
2021/05/03 07:15:20;;;;;;;18.92;5.35;;;;;;;21.60;53.77;100156.05;1715616;82;21149;-70
2021/05/03 07:17:49;;;;;;;14.50;5.62;;;;;;;21.90;53.62;100158.38;1735681;81;21503;-68
2021/05/03 07:20:17;;;;;;;11.78;5.15;;;;;;;22.10;52.60;100155.55;1739757;82;21003;-68
2021/05/03 07:22:45;;;;;;;9.40;5.20;;;;;;;22.19;51.58;100141.63;1749574;82;20955;-68
2021/05/03 07:25:14;;;;;;;10.18;5.47;;;;;;;22.16;51.78;100132.63;1749751;82;20907;-69
2021/05/03 07:27:42;;;;;;;11.68;5.75;;;;;;;22.13;51.66;100132.99;1749707;80;21759;-68
2021/05/03 07:30:12;;;;;;;17.32;5.53;;;;;;;22.14;51.73;100132.83;1749632;80;20995;-69
2021/05/03 07:32:40;;;;;;;11.50;5.75;;;;;;;22.13;51.32;100135.66;1749731;82;21112;-68
2021/05/03 07:35:14;;;;;;;15.25;6.05;;;;;;;22.09;51.86;100137.03;1749596;80;21022;-69
2021/05/03 07:37:43;;;;;;;11.97;4.70;;;;;;;22.07;51.85;100137.20;1749760;82;21026;-68
2021/05/03 07:40:11;;;;;;;16.50;5.10;;;;;;;22.03;51.97;100143.08;1749574;82;22077;-68
2021/05/03 07:42:40;;;;;;;9.93;5.03;;;;;;;22.04;52.37;100148.76;1749478;80;21473;-69
2021/05/03 07:45:13;;;;;;;12.23;4.95;;;;;;;22.09;51.91;100148.53;1749726;82;20967;-68
2021/05/03 07:47:43;;;;;;;10.18;5.33;;;;;;;22.09;51.98;100151.72;1749684;82;20943;-68
2021/05/03 07:50:12;;;;;;;10.78;5.80;;;;;;;22.11;52.25;100153.20;1749779;82;20947;-68
2021/05/03 07:52:41;;;;;;;12.07;4.58;;;;;;;22.09;52.12;100158.39;1749738;82;21376;-68
2021/05/03 07:55:12;;;;;;;15.20;5.67;;;;;;;22.08;52.59;100164.76;1749715;82;21488;-71
2021/05/03 07:57:40;;;;;;;12.40;5.85;;;;;;;22.29;52.54;100164.94;1749766;82;21042;-70
2021/05/03 08:00:11;;;;;;;12.35;5.20;;;;;;;22.65;52.17;100158.11;1749447;80;20967;-68
2021/05/03 08:02:39;;;;;;;8.90;5.40;;;;;;;23.09;51.25;100140.77;1749777;80;21448;-69
2021/05/03 08:05:09;;;;;;;14.28;6.75;;;;;;;23.40;49.66;100133.03;1749716;82;21788;-69
2021/05/03 08:07:38;;;;;;;12.98;6.35;;;;;;;23.71;49.26;100134.63;1749616;81;21003;-70
2021/05/03 08:10:09;;;;;;;14.28;5.53;;;;;;;24.12;48.98;100134.86;1749726;80;21413;-70
2021/05/03 08:12:39;;;;;;;13.78;7.47;;;;;;;24.57;47.37;100140.81;1749687;82;20983;-69
2021/05/03 08:15:12;;;;;;;15.90;5.40;;;;;;;25.00;46.33;100146.02;1749733;82;21006;-70
2021/05/03 08:17:43;;;;;;;15.48;5.37;;;;;;;25.27;45.40;100146.70;1749719;80;22134;-70
2021/05/03 08:20:14;;;;;;;11.33;5.58;;;;;;;25.40;44.93;100131.47;1749521;81;21205;-69
2021/05/03 08:22:42;;;;;;;9.73;5.42;;;;;;;25.46;44.91;100129.84;1749679;80;20942;-70
2021/05/03 08:25:10;;;;;;;11.73;6.05;;;;;;;25.49;44.65;100128.09;1749728;82;21405;-68
2021/05/03 08:27:39;;;;;;;10.75;5.83;;;;;;;25.51;44.81;100119.32;1749706;82;21027;-68
2021/05/03 08:30:08;;;;;;;12.10;5.83;;;;;;;25.56;44.67;100114.69;1749659;82;21362;-68
2021/05/03 08:32:36;;;;;;;12.35;5.90;;;;;;;25.67;44.64;100112.75;1749645;82;21054;-70
2021/05/03 08:35:06;;;;;;;13.53;5.87;;;;;;;25.97;44.76;100097.13;1749643;82;20951;-68
2021/05/03 08:37:35;;;;;;;14.87;5.65;;;;;;;26.40;44.24;100095.34;1749478;80;21730;-68
2021/05/03 08:40:04;;;;;;;15.28;6.17;;;;;;;26.74;42.82;100092.09;1749737;80;21524;-69
2021/05/03 08:42:32;;;;;;;19.25;6.20;;;;;;;27.11;42.72;100080.81;1749790;82;21365;-69
2021/05/03 08:45:02;;;;;;;12.07;5.47;;;;;;;27.45;41.51;100086.36;1749777;82;20955;-69
2021/05/03 08:47:34;;;;;;;12.33;5.28;;;;;;;27.68;41.76;100083.09;1749923;80;21527;-67
2021/05/03 08:50:17;;;;;;;10.60;5.58;;;;;;;27.98;41.32;100086.55;1722906;82;21558;-70
2021/05/03 08:52:53;;;;;;;15.80;5.60;;;;;;;28.25;41.00;100085.80;1726017;82;21496;-68
2021/05/03 08:55:16;;;;;;;15.18;6.20;;;;;;;28.64;40.28;100082.45;1723020;82;21496;-68
2021/05/03 08:57:45;;;;;;;12.25;5.35;;;;;;;29.01;39.76;100075.14;1749845;82;20951;-69
2021/05/03 09:00:16;;;;;;;14.23;5.53;;;;;;;29.42;39.44;100067.39;1749913;82;20959;-70
2021/05/03 09:02:45;;;;;;;10.38;5.95;;;;;;;29.78;38.31;100073.73;1749879;80;20947;-78
2021/05/03 09:05:15;;;;;;;11.65;5.55;;;;;;;30.01;38.09;100077.81;1750109;82;20907;-77
2021/05/03 09:07:50;;;;;;;14.38;6.12;;;;;;;30.10;37.68;100064.27;1749887;82;21201;-79
2021/05/03 09:10:20;;;;;;;13.20;6.08;;;;;;;30.10;37.81;100065.62;1749902;82;20963;-78
2021/05/03 09:12:50;;;;;;;14.90;6.87;;;;;;;30.03;37.71;100065.42;1750230;82;20983;-76
2021/05/03 09:15:23;;;;;;;12.70;5.25;;;;;;;29.78;37.73;100061.03;1749816;82;21038;-75
2021/05/03 09:17:52;;;;;;;11.65;6.20;;;;;;;29.51;38.21;100055.19;1749921;82;20923;-74
2021/05/03 09:20:22;;;;;;;16.02;6.67;;;;;;;29.06;38.85;100066.36;1748705;81;21829;-76
2021/05/03 09:22:55;;;;;;;12.13;6.05;;;;;;;28.65;39.42;100063.31;1735999;82;20979;-76
2021/05/03 09:25:34;;;;;;;11.63;5.47;;;;;;;28.32;40.53;100056.89;1735988;82;20951;-75
2021/05/03 09:28:27;;;;;;;11.88;5.72;;;;;;;28.11;41.48;100071.08;1735721;81;21055;-72
2021/05/03 09:30:59;;;;;;;;;;;;;;;27.90;41.40;100069.62;1738431;82;21350;-79
2021/05/03 09:33:35;;;;;;;17.60;6.92;;;;;;;27.62;42.34;100067.29;1735830;81;21199;-73
2021/05/03 09:36:08;;;;;;;12.28;6.28;;;;;;;27.38;42.33;100068.89;1735281;82;21026;-70
2021/05/03 09:38:49;;;;;;;14.75;6.05;;;;;;;27.09;43.10;100072.94;1735806;81;21000;-70
2021/05/03 09:41:25;;;;;;;10.20;5.72;;;;;;;26.88;43.69;100072.20;1735806;82;20980;-69
2021/05/03 09:44:07;;;;;;;11.45;5.33;;;;;;;26.74;43.82;100058.47;1735823;82;20939;-70
2021/05/03 09:46:46;;;;;;;8.78;5.00;;;;;;;26.77;44.17;100055.87;1735859;81;21159;-71
2021/05/03 09:49:20;;;;;;;14.75;7.55;;;;;;;26.90;44.21;100048.28;1735709;82;21122;-71
2021/05/03 09:51:52;;;;;;;15.43;9.25;;;;;;;27.21;44.19;100059.16;1735771;82;21019;-73
2021/05/03 09:54:34;;;;;;;20.12;11.33;;;;;;;27.33;43.88;100060.64;1735736;81;21082;-70
2021/05/03 09:57:05;;;;;;;19.32;12.68;;;;;;;27.32;43.22;100064.36;1735436;82;21019;-70
2021/05/03 09:59:45;;;;;;;23.98;11.95;;;;;;;27.24;43.12;100064.10;1735772;82;21358;-67
2021/05/03 10:02:31;;;;;;;21.15;13.48;;;;;;;27.14;43.25;100061.00;1735792;82;20967;-70
2021/05/03 10:05:12;;;;;;;21.35;11.97;;;;;;;27.00;43.88;100054.86;1735840;81;20939;-68
2021/05/03 10:07:42;;;;;;;23.15;13.78;;;;;;;26.84;44.26;100060.73;1735676;82;21026;-69
2021/05/03 10:10:16;;;;;;;22.30;13.20;;;;;;;26.56;44.49;100064.52;1735806;82;21173;-69
2021/05/03 10:12:41;;;;;;;24.67;13.62;;;;;;;26.27;44.91;100065.78;1735684;82;21381;-70
2021/05/03 10:15:15;;;;;;;23.30;14.25;;;;;;;26.02;45.30;100054.86;1715161;82;20920;-71
2021/05/03 10:17:44;;;;;;;;;;;;;;;25.85;46.26;100044.99;1738352;82;20955;-73
2021/05/03 10:20:16;;;;;;;27.55;15.18;;;;;;;25.68;46.26;100056.67;1735741;82;20135;-70
2021/05/03 10:22:46;;;;;;;22.75;13.60;;;;;;;25.43;46.72;100048.34;1748783;81;20979;-70
2021/05/03 10:25:17;;;;;;;25.40;13.80;;;;;;;25.26;47.16;100052.43;1749762;82;21366;-70
2021/05/03 10:27:50;;;;;;;24.75;13.88;;;;;;;25.25;47.77;100056.98;1749743;80;20915;-72
2021/05/03 10:30:24;;;;;;;24.60;15.30;;;;;;;25.42;48.99;100051.55;1750038;82;21022;-72
2021/05/03 10:33:06;;;;;;;26.77;13.70;;;;;;;25.59;47.62;100052.50;1749742;80;21219;-73
2021/05/03 10:35:59;;;;;;;22.93;12.23;;;;;;;25.71;47.69;100052.75;1749803;82;20931;-74
2021/05/03 10:38:38;;;;;;;24.45;12.63;;;;;;;25.74;47.23;100057.70;1670666;85;21665;-72
2021/05/03 10:41:29;;;;;;;19.23;12.03;;;;;;;25.76;47.40;100052.95;1635495;87;21553;-72
2021/05/03 10:44:18;;;;;;;16.12;10.72;;;;;;;25.69;47.21;100061.00;1651844;86;21035;-71
2021/05/03 10:49:20;;;;;;;22.62;12.05;;;;;;;25.41;47.37;100049.91;1670453;85;21021;-70
2021/05/03 10:51:59;;;;;;;20.37;13.05;;;;;;;25.33;47.75;100054.12;1669856;85;21471;-70
2021/05/03 10:54:33;;;;;;;21.97;12.35;;;;;;;25.22;47.77;100052.03;1635400;86;21033;-69
2021/05/03 10:57:02;;;;;;;22.50;12.37;;;;;;;25.07;48.40;100053.48;1635605;86;20972;-68
2021/05/03 10:59:53;;;;;;;25.85;12.63;;;;;;;24.96;48.44;100061.59;1651631;86;21058;-68
2021/05/03 11:02:25;;;;;;;26.68;12.07;;;;;;;24.86;48.74;100059.81;1642824;86;21560;-70
2021/05/03 11:08:09;;;;;;;22.95;13.38;;;;;;;24.85;48.92;100057.31;1868304;76;28317;-71
2021/05/03 11:11:02;;;;;;;23.70;12.75;;;;;;;24.93;49.40;100054.47;1852902;76;20966;-69
2021/05/03 11:13:41;;;;;;;17.77;11.53;;;;;;;25.06;48.82;100038.91;1852907;77;20958;-69
2021/05/03 11:16:31;;;;;;;23.70;13.20;;;;;;;25.12;49.16;100028.20;1852769;77;20982;-71
2021/05/03 11:19:02;;;;;;;18.52;13.35;;;;;;;25.35;49.21;100021.72;1852872;77;20978;-69
2021/05/03 11:21:44;;;;;;;31.50;17.42;;;;;;;25.51;49.08;100021.31;1822656;77;21136;-70
2021/05/03 11:24:29;;;;;;;29.50;16.65;;;;;;;25.64;47.78;100032.59;1852910;76;20902;-70
2021/05/03 11:27:08;;;;;;;24.25;16.37;;;;;;;25.60;47.99;100049.63;1852947;77;22390;-71
2021/05/03 11:32:06;;;;;;;33.85;16.23;;;;;;;25.47;47.69;100063.55;1852824;77;21000;-69
2021/05/03 11:34:55;;;;;;;23.30;13.65;;;;;;;25.33;47.99;100066.20;1852873;77;21341;-72
2021/05/03 11:37:26;;;;;;;16.55;9.70;;;;;;;25.24;48.47;100068.76;1851922;76;21001;-71
2021/05/03 11:40:05;;;;;;;16.97;8.23;;;;;;;25.10;47.84;100085.79;1851618;77;21175;-70
2021/05/03 11:44:57;;;;;;;16.20;8.78;;;;;;;24.81;48.54;100083.70;1852929;77;20935;-72
2021/05/03 11:47:34;;;;;;;13.90;8.53;;;;;;;24.71;49.21;100082.72;1852793;77;20907;-73
2021/05/03 11:50:03;;;;;;;16.32;7.75;;;;;;;24.59;49.25;100082.45;1852949;77;21329;-70
2021/05/03 11:52:34;;;;;;;16.67;7.60;;;;;;;24.44;49.21;100079.55;1852812;77;21020;-71
2021/05/03 11:55:09;;;;;;;14.38;6.72;;;;;;;24.24;49.10;100077.55;1852773;77;20907;-70
2021/05/03 11:57:41;;;;;;;12.90;6.95;;;;;;;24.01;49.56;100076.41;1852924;77;21436;-70
2021/05/03 12:00:12;;;;;;;19.35;9.03;;;;;;;23.91;50.43;100074.08;1852770;77;20962;-71